createdAt,value
2022-09-18T00:00:14.149Z,8.30
2022-09-18T00:00:54.929Z,8.30
2022-09-18T00:01:32.018Z,8.30
2022-09-18T00:02:04.883Z,8.30
2022-09-18T00:02:36.867Z,8.40
2022-09-18T00:03:08.836Z,8.40
2022-09-18T00:03:42.443Z,8.40
2022-09-18T00:04:14.932Z,8.30
2022-09-18T00:04:46.850Z,8.30
2022-09-18T00:05:19.549Z,8.30
2022-09-18T00:05:51.458Z,8.40
2022-09-18T00:06:24.965Z,8.30
2022-09-18T00:06:58.249Z,8.30
2022-09-18T00:07:30.039Z,8.30
2022-09-18T00:08:02.188Z,8.30
2022-09-18T00:08:34.005Z,8.30
2022-09-18T00:09:08.833Z,8.30
2022-09-18T00:09:40.593Z,8.30
2022-09-18T00:10:12.371Z,8.30
2022-09-18T00:10:46.577Z,8.40
2022-09-18T00:11:21.985Z,8.30
2022-09-18T00:11:53.778Z,8.40
2022-09-18T00:12:26.605Z,8.40
2022-09-18T00:12:58.560Z,8.40
2022-09-18T00:13:30.909Z,8.40
2022-09-18T00:14:04.992Z,8.40
2022-09-18T00:14:36.876Z,8.40
2022-09-18T00:15:09.628Z,8.40
2022-09-18T00:15:42.669Z,8.30
2022-09-18T00:16:16.799Z,8.40
2022-09-18T00:16:50.944Z,8.40
2022-09-18T00:17:23.652Z,8.40
2022-09-18T00:17:55.422Z,8.40
2022-09-18T00:18:27.303Z,8.40
2022-09-18T00:19:00.523Z,8.40
2022-09-18T00:19:32.312Z,8.30
2022-09-18T00:20:05.150Z,8.30
2022-09-18T00:20:38.713Z,8.30
2022-09-18T00:21:12.700Z,8.30
2022-09-18T00:21:46.264Z,8.30
2022-09-18T00:22:19.817Z,8.30
2022-09-18T00:22:51.589Z,8.30
2022-09-18T00:23:23.377Z,8.30
2022-09-18T00:23:57.153Z,8.30
2022-09-18T00:24:30.447Z,8.30
2022-09-18T00:25:02.258Z,8.30
2022-09-18T00:25:34.032Z,8.30
2022-09-18T00:26:07.081Z,8.30
2022-09-18T00:26:40.236Z,8.30
2022-09-18T00:27:11.995Z,8.30
2022-09-18T00:27:43.778Z,8.30
2022-09-18T00:28:16.517Z,8.30
2022-09-18T00:28:48.308Z,8.30
2022-09-18T00:29:21.081Z,8.30
2022-09-18T00:29:52.871Z,8.30
2022-09-18T00:30:24.640Z,8.30
2022-09-18T00:30:56.478Z,8.30
2022-09-18T00:31:31.781Z,8.30
2022-09-18T00:32:05.057Z,8.40
2022-09-18T00:32:36.813Z,8.30
2022-09-18T00:33:08.593Z,8.30
2022-09-18T00:33:42.076Z,8.30
2022-09-18T00:34:15.493Z,8.30
2022-09-18T00:34:47.246Z,8.30
2022-09-18T00:35:19.057Z,8.40
2022-09-18T00:35:51.796Z,8.30
2022-09-18T00:36:23.813Z,8.30
2022-09-18T00:36:55.594Z,8.30
2022-09-18T00:37:28.522Z,8.30
2022-09-18T00:38:00.281Z,8.30
2022-09-18T00:38:32.834Z,8.40
2022-09-18T00:39:06.757Z,8.40
2022-09-18T00:39:38.530Z,8.30
2022-09-18T00:40:10.989Z,8.30
2022-09-18T00:40:43.901Z,8.30
2022-09-18T00:41:18.582Z,8.30
2022-09-18T00:41:51.521Z,8.40
2022-09-18T00:42:23.301Z,8.30
2022-09-18T00:42:55.081Z,8.40
2022-09-18T00:43:28.845Z,8.30
2022-09-18T00:44:36.732Z,8.30
2022-09-18T00:45:10.502Z,8.40
2022-09-18T00:45:43.353Z,8.40
2022-09-18T00:46:24.161Z,8.40
2022-09-18T00:47:01.159Z,8.40
2022-09-18T00:47:38.439Z,8.40
2022-09-18T00:48:11.436Z,8.40
2022-09-18T00:48:48.772Z,8.40
2022-09-18T00:49:26.402Z,8.40
2022-09-18T00:50:04.769Z,8.40
2022-09-18T00:50:37.553Z,8.40
2022-09-18T00:51:09.772Z,8.40
2022-09-18T00:51:44.645Z,8.50
2022-09-18T00:52:19.431Z,8.40
2022-09-18T00:52:56.745Z,8.40
2022-09-18T00:53:29.105Z,8.40
2022-09-18T00:54:07.408Z,8.40
2022-09-18T00:54:41.849Z,8.40
2022-09-18T00:55:15.818Z,8.40
2022-09-18T00:55:47.688Z,8.50
2022-09-18T00:56:20.148Z,8.50
2022-09-18T00:56:57.841Z,8.50
2022-09-18T00:57:33.881Z,8.50
2022-09-18T00:58:06.320Z,8.40
2022-09-18T00:58:48.098Z,8.40
2022-09-18T00:59:24.313Z,8.40
2022-09-18T00:59:56.138Z,8.50
2022-09-18T01:00:31.332Z,8.50
2022-09-18T01:01:03.355Z,8.50
2022-09-18T01:01:35.217Z,8.50
2022-09-18T01:02:07.098Z,8.50
2022-09-18T01:02:43.197Z,8.50
2022-09-18T01:03:15.065Z,8.50
2022-09-18T01:03:46.944Z,8.50
2022-09-18T01:04:19.801Z,8.50
2022-09-18T01:04:51.766Z,8.50
2022-09-18T01:05:29.593Z,8.50
2022-09-18T01:06:11.599Z,8.50
2022-09-18T01:06:49.865Z,8.50
2022-09-18T01:07:33.883Z,8.60
2022-09-18T01:08:24.027Z,8.60
2022-09-18T01:09:08.805Z,8.60
2022-09-18T01:09:50.894Z,8.60
2022-09-18T01:10:36.159Z,8.60
2022-09-18T01:11:20.455Z,8.60
2022-09-18T01:11:59.129Z,8.60
2022-09-18T01:12:39.919Z,8.60
2022-09-18T01:13:20.896Z,8.60
2022-09-18T01:14:05.153Z,8.60
2022-09-18T01:14:41.489Z,8.60
2022-09-18T01:15:25.076Z,8.60
2022-09-18T01:16:06.079Z,8.60
2022-09-18T01:16:45.678Z,8.50
2022-09-18T01:17:26.694Z,8.50
2022-09-18T01:18:10.703Z,8.60
2022-09-18T01:18:51.664Z,8.50
2022-09-18T01:19:54.909Z,8.50
2022-09-18T01:20:52.210Z,8.50
2022-09-18T01:21:31.457Z,8.50
2022-09-18T01:22:17.625Z,8.50
2022-09-18T01:23:18.296Z,8.60
2022-09-18T01:24:28.200Z,8.60
2022-09-18T01:25:16.708Z,8.60
2022-09-18T01:26:03.858Z,8.60
2022-09-18T01:26:54.862Z,8.60
2022-09-18T01:27:32.965Z,8.60
2022-09-18T01:28:17.497Z,8.50
2022-09-18T01:28:54.481Z,8.50
2022-09-18T01:29:35.725Z,8.60
2022-09-18T01:30:11.034Z,8.60
2022-09-18T01:30:47.699Z,8.50
2022-09-18T01:31:27.035Z,8.50
2022-09-18T01:32:05.263Z,8.60
2022-09-18T01:32:41.734Z,8.60
2022-09-18T01:33:18.969Z,8.60
2022-09-18T01:33:59.148Z,8.60
2022-09-18T01:34:36.503Z,8.50
2022-09-18T01:35:39.380Z,8.50
2022-09-18T01:36:11.406Z,8.60
2022-09-18T01:36:47.762Z,8.60
2022-09-18T01:37:25.126Z,8.60
2022-09-18T01:38:02.958Z,8.60
2022-09-18T01:38:40.957Z,8.60
2022-09-18T01:39:19.232Z,8.50
2022-09-18T01:39:54.387Z,8.50
2022-09-18T01:40:31.148Z,8.50
2022-09-18T01:41:08.905Z,8.50
2022-09-18T01:41:50.580Z,8.50
2022-09-18T01:42:27.223Z,8.50
2022-09-18T01:43:02.290Z,8.50
2022-09-18T01:43:38.593Z,8.50
2022-09-18T01:44:15.195Z,8.50
2022-09-18T01:44:47.738Z,8.50
2022-09-18T01:45:26.184Z,8.50
2022-09-18T01:46:03.794Z,8.50
2022-09-18T01:46:39.531Z,8.50
2022-09-18T01:47:15.693Z,8.50
2022-09-18T01:47:53.737Z,8.50
2022-09-18T01:48:28.254Z,8.50
2022-09-18T01:49:05.533Z,8.50
2022-09-18T01:49:41.471Z,8.50
2022-09-18T01:50:15.823Z,8.50
2022-09-18T01:50:54.672Z,8.50
2022-09-18T01:51:31.125Z,8.50
2022-09-18T01:52:08.632Z,8.50
2022-09-18T01:52:45.848Z,8.50
2022-09-18T01:53:21.275Z,8.40
2022-09-18T01:53:57.171Z,8.50
2022-09-18T01:54:33.005Z,8.40
2022-09-18T01:55:11.760Z,8.50
2022-09-18T01:55:50.246Z,8.50
2022-09-18T01:56:25.657Z,8.50
2022-09-18T01:57:03.776Z,8.50
2022-09-18T01:57:40.917Z,8.50
2022-09-18T01:58:17.318Z,8.50
2022-09-18T01:58:53.333Z,8.60
2022-09-18T01:59:28.382Z,8.60
2022-09-18T02:00:05.875Z,8.60
2022-09-18T02:00:43.873Z,8.60
2022-09-18T02:01:18.667Z,8.60
2022-09-18T02:01:54.009Z,8.60
2022-09-18T02:02:32.331Z,8.60
2022-09-18T02:03:09.623Z,8.60
2022-09-18T02:03:46.059Z,8.50
2022-09-18T02:04:23.156Z,8.50
2022-09-18T02:04:59.732Z,8.50
2022-09-18T02:05:35.379Z,8.50
2022-09-18T02:06:11.968Z,8.50
2022-09-18T02:06:49.302Z,8.50
2022-09-18T02:07:27.512Z,8.50
2022-09-18T02:08:10.984Z,8.50
2022-09-18T02:08:47.779Z,8.50
2022-09-18T02:09:19.648Z,8.50
2022-09-18T02:09:51.479Z,8.50
2022-09-18T02:10:26.453Z,8.60
2022-09-18T02:11:02.752Z,8.60
2022-09-18T02:11:37.489Z,8.50
2022-09-18T02:12:12.292Z,8.50
2022-09-18T02:12:45.344Z,8.50
2022-09-18T02:13:21.298Z,8.60
2022-09-18T02:14:00.388Z,8.60
2022-09-18T02:14:35.721Z,8.70
2022-09-18T02:15:11.248Z,8.60
2022-09-18T02:15:47.683Z,8.60
2022-09-18T02:16:25.149Z,8.60
2022-09-18T02:17:01.271Z,8.60
2022-09-18T02:17:40.865Z,8.60
2022-09-18T02:18:18.000Z,8.60
2022-09-18T02:18:53.466Z,8.60
2022-09-18T02:19:29.848Z,8.60
2022-09-18T02:20:06.332Z,8.60
2022-09-18T02:20:40.996Z,8.60
2022-09-18T02:21:18.025Z,8.60
2022-09-18T02:21:51.699Z,8.60
2022-09-18T02:22:24.786Z,8.60
2022-09-18T02:23:01.157Z,8.60
2022-09-18T02:23:33.862Z,8.60
2022-09-18T02:24:09.201Z,8.60
2022-09-18T02:24:46.560Z,8.60
2022-09-18T02:25:21.805Z,8.60
2022-09-18T02:25:57.221Z,8.60
2022-09-18T02:26:30.381Z,8.60
2022-09-18T02:27:04.743Z,8.60
2022-09-18T02:27:38.743Z,8.60
2022-09-18T02:28:15.954Z,8.60
2022-09-18T02:28:50.328Z,8.60
2022-09-18T02:29:25.307Z,8.70
2022-09-18T02:29:59.186Z,8.70
2022-09-18T02:30:31.377Z,8.70
2022-09-18T02:31:03.514Z,8.70
2022-09-18T02:31:38.501Z,8.70
2022-09-18T02:32:11.173Z,8.70
2022-09-18T02:32:42.968Z,8.70
2022-09-18T02:33:25.995Z,8.70
2022-09-18T02:33:58.783Z,8.70
2022-09-18T02:34:31.421Z,8.70
2022-09-18T02:35:03.685Z,8.70
2022-09-18T02:35:51.355Z,8.70
2022-09-18T02:36:40.993Z,8.70
2022-09-18T02:37:27.657Z,8.70
2022-09-18T02:38:05.000Z,8.70
2022-09-18T02:38:42.709Z,8.70
2022-09-18T02:39:27.934Z,8.70
2022-09-18T02:40:10.209Z,8.80
2022-09-18T02:40:55.861Z,8.70
2022-09-18T02:41:35.485Z,8.70
2022-09-18T02:42:16.256Z,8.70
2022-09-18T02:42:55.614Z,8.70
2022-09-18T02:43:38.412Z,8.70
2022-09-18T02:44:18.561Z,8.70
2022-09-18T02:45:01.105Z,8.80
2022-09-18T02:45:42.672Z,8.80
2022-09-18T02:46:20.363Z,8.70
2022-09-18T02:47:01.516Z,8.70
2022-09-18T02:47:49.629Z,8.80
2022-09-18T02:48:38.860Z,8.80
2022-09-18T02:49:14.610Z,8.80
2022-09-18T02:49:56.245Z,8.80
2022-09-18T02:50:37.317Z,8.80
2022-09-18T02:51:16.585Z,8.80
2022-09-18T02:51:55.669Z,8.80
2022-09-18T02:52:32.675Z,8.80
2022-09-18T02:53:08.608Z,8.80
2022-09-18T02:53:47.052Z,8.80
2022-09-18T02:54:24.553Z,8.80
2022-09-18T02:55:01.499Z,8.80
2022-09-18T02:55:43.007Z,8.80
2022-09-18T02:56:21.903Z,8.80
2022-09-18T02:56:57.951Z,8.80
2022-09-18T02:57:35.524Z,8.90
2022-09-18T02:58:12.730Z,8.80
2022-09-18T02:58:49.921Z,8.80
2022-09-18T02:59:27.116Z,8.80
2022-09-18T03:00:01.717Z,8.90
2022-09-18T03:00:34.524Z,8.90
2022-09-18T03:01:09.005Z,8.90
2022-09-18T03:01:43.820Z,8.90
2022-09-18T03:02:15.875Z,8.90
2022-09-18T03:02:50.718Z,8.90
2022-09-18T03:03:27.182Z,8.90
2022-09-18T03:04:03.952Z,8.90
2022-09-18T03:04:36.693Z,9.10
2022-09-18T03:05:09.201Z,8.90
2022-09-18T03:05:41.046Z,9.00
2022-09-18T03:06:13.805Z,8.90
2022-09-18T03:06:45.575Z,8.90
2022-09-18T03:07:17.853Z,8.90
2022-09-18T03:07:49.673Z,8.90
2022-09-18T03:08:22.414Z,9.00
2022-09-18T03:08:54.191Z,8.90
2022-09-18T03:09:26.169Z,8.90
2022-09-18T03:09:58.907Z,8.90
2022-09-18T03:10:31.209Z,8.90
2022-09-18T03:11:03.052Z,9.00
2022-09-18T03:11:36.994Z,8.90
2022-09-18T03:12:08.795Z,8.90
2022-09-18T03:12:40.565Z,8.90
2022-09-18T03:13:13.312Z,8.90
2022-09-18T03:13:45.133Z,8.90
2022-09-18T03:14:17.021Z,8.90
2022-09-18T03:14:49.838Z,8.90
2022-09-18T03:15:23.030Z,9.00
2022-09-18T03:15:55.321Z,9.00
2022-09-18T03:16:28.177Z,9.00
2022-09-18T03:17:00.273Z,9.00
2022-09-18T03:17:32.081Z,9.00
2022-09-18T03:18:04.907Z,9.00
2022-09-18T03:18:36.700Z,9.00
2022-09-18T03:19:08.517Z,9.00
2022-09-18T03:19:41.278Z,9.00
2022-09-18T03:20:13.089Z,9.00
2022-09-18T03:20:44.880Z,9.00
2022-09-18T03:21:17.666Z,9.00
2022-09-18T03:21:51.093Z,9.00
2022-09-18T03:22:22.889Z,9.00
2022-09-18T03:22:55.628Z,9.00
2022-09-18T03:23:27.692Z,9.00
2022-09-18T03:23:59.578Z,9.10
2022-09-18T03:24:32.336Z,9.00
2022-09-18T03:25:04.907Z,9.00
2022-09-18T03:25:36.882Z,9.00
2022-09-18T03:26:09.617Z,9.00
2022-09-18T03:26:41.472Z,9.00
2022-09-18T03:27:13.280Z,9.00
2022-09-18T03:27:46.115Z,9.00
2022-09-18T03:28:18.197Z,9.00
2022-09-18T03:28:50.045Z,9.00
2022-09-18T03:29:21.825Z,9.00
2022-09-18T03:29:54.585Z,9.00
2022-09-18T03:30:27.873Z,9.10
2022-09-18T03:30:59.772Z,9.10
2022-09-18T03:31:32.534Z,9.10
2022-09-18T03:32:05.014Z,9.10
2022-09-18T03:32:36.798Z,9.10
2022-09-18T03:33:09.529Z,9.10
2022-09-18T03:33:41.439Z,9.10
2022-09-18T03:34:13.244Z,9.10
2022-09-18T03:34:46.010Z,9.10
2022-09-18T03:35:17.797Z,9.10
2022-09-18T03:35:49.577Z,9.20
2022-09-18T03:36:22.452Z,9.20
2022-09-18T03:36:54.430Z,9.20
2022-09-18T03:37:26.213Z,9.20
2022-09-18T03:37:59.005Z,9.10
2022-09-18T03:38:30.762Z,9.20
2022-09-18T03:39:02.732Z,9.20
2022-09-18T03:39:35.604Z,9.20
2022-09-18T03:40:08.895Z,9.10
2022-09-18T03:40:47.361Z,9.20
2022-09-18T03:41:22.448Z,9.20
2022-09-18T03:41:54.208Z,9.20
2022-09-18T03:42:25.998Z,9.20
2022-09-18T03:42:58.779Z,9.20
2022-09-18T03:43:30.586Z,9.20
2022-09-18T03:44:02.642Z,9.20
2022-09-18T03:44:35.353Z,9.20
2022-09-18T03:45:07.791Z,9.20
2022-09-18T03:45:40.916Z,9.20
2022-09-18T03:46:13.709Z,9.20
2022-09-18T03:46:45.715Z,9.20
2022-09-18T03:47:17.580Z,9.20
2022-09-18T03:47:50.369Z,9.20
2022-09-18T03:48:22.673Z,9.20
2022-09-18T03:48:54.581Z,9.20
2022-09-18T03:49:27.330Z,9.20
2022-09-18T03:49:59.102Z,9.20
2022-09-18T03:50:31.071Z,9.20
2022-09-18T03:51:03.868Z,9.20
2022-09-18T03:51:35.631Z,9.20
2022-09-18T03:52:07.423Z,9.10
2022-09-18T03:52:40.785Z,9.10
2022-09-18T03:53:12.557Z,9.10
2022-09-18T03:53:45.234Z,9.10
2022-09-18T03:54:17.953Z,9.10
2022-09-18T03:54:50.815Z,9.10
2022-09-18T03:55:22.885Z,9.10
2022-09-18T03:55:55.598Z,9.10
2022-09-18T03:56:27.414Z,9.10
2022-09-18T03:56:59.221Z,9.10
2022-09-18T03:57:31.055Z,9.10
2022-09-18T03:58:03.816Z,9.10
2022-09-18T03:58:35.575Z,9.20
2022-09-18T03:59:07.491Z,9.20
2022-09-18T03:59:40.283Z,9.20
2022-09-18T04:00:14.014Z,9.20
2022-09-18T04:00:47.248Z,9.20
2022-09-18T04:01:20.005Z,9.20
2022-09-18T04:01:51.819Z,9.20
2022-09-18T04:02:23.698Z,9.20
2022-09-18T04:02:56.537Z,9.20
2022-09-18T04:03:28.305Z,9.20
2022-09-18T04:04:00.101Z,9.20
2022-09-18T04:04:32.893Z,9.20
2022-09-18T04:05:05.564Z,9.20
2022-09-18T04:05:37.360Z,9.20
2022-09-18T04:06:10.138Z,9.20
2022-09-18T04:06:41.966Z,9.20
2022-09-18T04:07:13.822Z,9.20
2022-09-18T04:07:46.569Z,9.20
2022-09-18T04:08:18.846Z,9.20
2022-09-18T04:08:50.866Z,9.10
2022-09-18T04:09:23.583Z,9.10
2022-09-18T04:09:55.367Z,9.10
2022-09-18T04:10:27.289Z,9.10
2022-09-18T04:11:00.043Z,9.10
2022-09-18T04:11:31.812Z,9.10
2022-09-18T04:12:03.844Z,9.10
2022-09-18T04:12:36.665Z,9.10
2022-09-18T04:13:08.430Z,9.10
2022-09-18T04:13:40.317Z,9.10
2022-09-18T04:14:14.264Z,9.10
2022-09-18T04:14:46.061Z,9.10
2022-09-18T04:15:19.026Z,9.20
2022-09-18T04:15:53.132Z,9.20
2022-09-18T04:16:25.236Z,9.20
2022-09-18T04:16:57.057Z,9.20
2022-09-18T04:17:29.803Z,9.20
2022-09-18T04:18:01.832Z,9.20
2022-09-18T04:18:33.839Z,9.20
2022-09-18T04:19:06.602Z,9.20
2022-09-18T04:19:38.427Z,9.20
2022-09-18T04:20:10.354Z,9.20
2022-09-18T04:20:43.122Z,9.20
2022-09-18T04:21:14.909Z,9.20
2022-09-18T04:21:46.681Z,9.20
2022-09-18T04:22:19.645Z,9.20
2022-09-18T04:22:51.473Z,9.20
2022-09-18T04:23:23.277Z,9.20
2022-09-18T04:23:59.672Z,9.20
2022-09-18T04:24:31.511Z,9.20
2022-09-18T04:25:03.844Z,9.20
2022-09-18T04:25:38.385Z,9.20
2022-09-18T04:26:10.295Z,9.20
2022-09-18T04:26:42.061Z,9.20
2022-09-18T04:27:14.974Z,9.20
2022-09-18T04:27:46.821Z,9.20
2022-09-18T04:28:18.598Z,9.30
2022-09-18T04:28:50.381Z,9.30
2022-09-18T04:29:23.120Z,9.20
2022-09-18T04:29:55.057Z,9.20
2022-09-18T04:30:26.842Z,9.20
2022-09-18T04:31:01.074Z,9.20
2022-09-18T04:31:33.033Z,9.30
2022-09-18T04:32:05.632Z,9.20
2022-09-18T04:32:38.421Z,9.30
2022-09-18T04:33:10.321Z,9.30
2022-09-18T04:33:42.113Z,9.20
2022-09-18T04:34:15.417Z,9.30
2022-09-18T04:34:47.250Z,9.30
2022-09-18T04:35:19.063Z,9.30
2022-09-18T04:35:51.826Z,9.30
2022-09-18T04:36:24.149Z,9.30
2022-09-18T04:36:55.953Z,9.30
2022-09-18T04:37:28.738Z,9.30
2022-09-18T04:38:00.521Z,9.30
2022-09-18T04:38:32.304Z,9.30
2022-09-18T04:39:05.421Z,9.30
2022-09-18T04:39:37.336Z,9.30
2022-09-18T04:40:11.058Z,9.30
2022-09-18T04:40:43.846Z,9.30
2022-09-18T04:41:15.641Z,9.30
2022-09-18T04:41:47.454Z,9.30
2022-09-18T04:42:20.188Z,9.30
2022-09-18T04:42:51.958Z,9.30
2022-09-18T04:43:24.633Z,9.40
2022-09-18T04:43:57.344Z,9.40
2022-09-18T04:44:29.106Z,9.40
2022-09-18T04:45:00.950Z,9.40
2022-09-18T04:45:33.723Z,9.40
2022-09-18T04:46:07.057Z,9.40
2022-09-18T04:46:39.008Z,9.40
2022-09-18T04:47:11.791Z,9.40
2022-09-18T04:47:44.752Z,9.40
2022-09-18T04:48:16.761Z,9.40
2022-09-18T04:48:50.698Z,9.50
2022-09-18T04:49:22.666Z,9.40
2022-09-18T04:49:54.823Z,9.40
2022-09-18T04:50:27.611Z,9.40
2022-09-18T04:50:59.379Z,9.30
2022-09-18T04:51:31.156Z,9.30
2022-09-18T04:52:04.010Z,9.30
2022-09-18T04:52:36.100Z,9.30
2022-09-18T04:53:08.197Z,9.30
2022-09-18T04:53:40.949Z,9.30
2022-09-18T04:54:12.934Z,9.30
2022-09-18T04:54:44.698Z,9.30
2022-09-18T04:55:17.479Z,9.30
2022-09-18T04:55:49.559Z,9.40
2022-09-18T04:56:21.615Z,9.40
2022-09-18T04:56:54.378Z,9.40
2022-09-18T04:57:26.261Z,9.40
2022-09-18T04:57:58.341Z,9.40
2022-09-18T04:58:31.236Z,9.40
2022-09-18T04:59:03.663Z,9.30
2022-09-18T04:59:35.432Z,9.40
2022-09-18T05:00:09.877Z,9.40
2022-09-18T05:00:41.907Z,9.40
2022-09-18T05:01:15.317Z,9.40
2022-09-18T05:01:48.211Z,9.40
2022-09-18T05:02:20.681Z,9.40
2022-09-18T05:02:52.465Z,9.40
2022-09-18T05:03:24.281Z,9.40
2022-09-18T05:03:57.081Z,9.40
2022-09-18T05:04:28.873Z,9.40
2022-09-18T05:05:00.693Z,9.40
2022-09-18T05:05:33.635Z,9.40
2022-09-18T05:06:06.183Z,9.40
2022-09-18T05:06:37.957Z,9.40
2022-09-18T05:07:10.695Z,9.40
2022-09-18T05:07:42.501Z,9.50
2022-09-18T05:08:14.315Z,9.40
2022-09-18T05:08:47.164Z,9.40
2022-09-18T05:09:18.948Z,9.50
2022-09-18T05:09:51.555Z,9.40
2022-09-18T05:10:24.569Z,9.40
2022-09-18T05:10:56.330Z,9.40
2022-09-18T05:11:28.485Z,9.40
2022-09-18T05:12:01.291Z,9.40
2022-09-18T05:12:33.042Z,9.40
2022-09-18T05:13:04.826Z,9.40
2022-09-18T05:13:39.362Z,9.40
2022-09-18T05:14:11.565Z,9.40
2022-09-18T05:14:43.366Z,9.40
2022-09-18T05:15:16.225Z,9.40
2022-09-18T05:15:48.074Z,9.40
2022-09-18T05:16:21.522Z,9.30
2022-09-18T05:16:54.704Z,9.30
2022-09-18T05:17:26.519Z,9.30
2022-09-18T05:17:59.640Z,9.30
2022-09-18T05:18:32.385Z,9.30
2022-09-18T05:19:04.400Z,9.30
2022-09-18T05:19:36.221Z,9.30
2022-09-18T05:20:09.903Z,9.30
2022-09-18T05:20:41.748Z,9.30
2022-09-18T05:21:13.545Z,9.30
2022-09-18T05:21:49.069Z,9.40
2022-09-18T05:22:20.841Z,9.40
2022-09-18T05:22:52.600Z,9.30
2022-09-18T05:23:25.401Z,9.30
2022-09-18T05:23:57.212Z,9.30
2022-09-18T05:24:29.029Z,9.30
2022-09-18T05:25:02.168Z,9.30
2022-09-18T05:25:34.012Z,9.30
2022-09-18T05:26:05.785Z,9.30
2022-09-18T05:26:38.502Z,9.40
2022-09-18T05:27:10.264Z,9.40
2022-09-18T05:27:42.046Z,9.30
2022-09-18T05:28:15.602Z,9.30
2022-09-18T05:28:49.481Z,9.30
2022-09-18T05:29:21.236Z,9.30
2022-09-18T05:29:53.975Z,9.30
2022-09-18T05:30:27.070Z,9.30
2022-09-18T05:30:59.969Z,9.30
2022-09-18T05:31:34.152Z,9.30
2022-09-18T05:32:05.964Z,9.30
2022-09-18T05:32:37.717Z,9.20
2022-09-18T05:33:11.850Z,9.20
2022-09-18T05:33:43.638Z,9.20
2022-09-18T05:34:15.446Z,9.30
2022-09-18T05:34:49.892Z,9.30
2022-09-18T05:35:21.883Z,9.30
2022-09-18T05:35:54.564Z,9.30
2022-09-18T05:36:27.324Z,9.40
2022-09-18T05:36:59.361Z,9.40
2022-09-18T05:37:31.201Z,9.40
2022-09-18T05:38:04.944Z,9.40
2022-09-18T05:38:36.814Z,9.40
2022-09-18T05:39:08.604Z,9.40
2022-09-18T05:39:42.144Z,9.50
2022-09-18T05:40:14.088Z,9.50
2022-09-18T05:40:46.004Z,9.40
2022-09-18T05:41:18.753Z,9.40
2022-09-18T05:41:51.068Z,9.50
2022-09-18T05:42:22.978Z,9.50
2022-09-18T05:42:55.729Z,9.50
2022-09-18T05:43:27.956Z,9.50
2022-09-18T05:44:00.681Z,9.40
2022-09-18T05:44:32.426Z,9.50
2022-09-18T05:45:04.909Z,9.50
2022-09-18T05:45:37.981Z,9.50
2022-09-18T05:46:09.858Z,9.50
2022-09-18T05:46:43.079Z,9.50
2022-09-18T05:47:15.929Z,9.50
2022-09-18T05:47:55.184Z,9.40
2022-09-18T05:48:26.989Z,9.50
2022-09-18T05:49:00.115Z,9.40
2022-09-18T05:49:32.002Z,9.40
2022-09-18T05:50:04.116Z,9.50
2022-09-18T05:50:37.504Z,9.50
2022-09-18T05:51:09.391Z,9.50
2022-09-18T05:51:41.193Z,9.50
2022-09-18T05:52:14.097Z,9.50
2022-09-18T05:52:45.848Z,9.50
2022-09-18T05:53:20.020Z,9.50
2022-09-18T05:53:52.831Z,9.50
2022-09-18T05:54:24.673Z,9.50
2022-09-18T05:54:56.493Z,9.50
2022-09-18T05:55:31.548Z,9.50
2022-09-18T05:56:04.980Z,9.50
2022-09-18T05:56:36.861Z,9.50
2022-09-18T05:57:08.656Z,9.50
2022-09-18T05:57:41.392Z,9.50
2022-09-18T05:58:15.030Z,9.50
2022-09-18T05:58:46.774Z,9.50
2022-09-18T05:59:19.543Z,9.50
2022-09-18T05:59:51.556Z,9.50
2022-09-18T06:00:24.045Z,9.50
2022-09-18T06:00:58.665Z,9.50
2022-09-18T06:01:30.904Z,9.50
2022-09-18T06:02:04.684Z,9.50
2022-09-18T06:02:37.594Z,9.50
2022-09-18T06:03:11.129Z,9.50
2022-09-18T06:03:42.989Z,9.50
2022-09-18T06:04:15.708Z,9.50
2022-09-18T06:04:47.491Z,9.40
2022-09-18T06:05:19.274Z,9.40
2022-09-18T06:05:55.885Z,9.40
2022-09-18T06:06:28.182Z,9.40
2022-09-18T06:07:01.458Z,9.50
2022-09-18T06:07:34.222Z,9.50
2022-09-18T06:08:07.736Z,9.50
2022-09-18T06:08:39.525Z,9.40
2022-09-18T06:09:12.274Z,9.70
2022-09-18T06:09:44.076Z,9.50
2022-09-18T06:10:16.577Z,9.50
2022-09-18T06:10:48.422Z,9.50
2022-09-18T06:11:21.159Z,9.50
2022-09-18T06:11:53.193Z,9.50
2022-09-18T06:12:25.017Z,9.50
2022-09-18T06:13:01.834Z,9.50
2022-09-18T06:13:33.898Z,9.50
2022-09-18T06:14:05.928Z,9.50
2022-09-18T06:14:38.693Z,9.60
2022-09-18T06:15:11.649Z,9.60
2022-09-18T06:15:44.908Z,9.60
2022-09-18T06:16:17.905Z,9.60
2022-09-18T06:16:49.900Z,9.60
2022-09-18T06:17:23.156Z,9.60
2022-09-18T06:17:55.932Z,9.50
2022-09-18T06:18:27.713Z,9.60
2022-09-18T06:18:59.538Z,9.60
2022-09-18T06:19:32.320Z,9.60
2022-09-18T06:20:05.501Z,9.60
2022-09-18T06:20:37.270Z,9.60
2022-09-18T06:21:10.207Z,9.60
2022-09-18T06:21:42.201Z,9.60
2022-09-18T06:22:15.025Z,9.60
2022-09-18T06:22:46.802Z,9.60
2022-09-18T06:23:18.594Z,9.60
2022-09-18T06:23:51.400Z,9.60
2022-09-18T06:24:23.448Z,9.60
2022-09-18T06:24:55.209Z,9.60
2022-09-18T06:25:28.361Z,9.70
2022-09-18T06:26:01.303Z,9.70
2022-09-18T06:26:33.196Z,9.70
2022-09-18T06:27:06.058Z,9.60
2022-09-18T06:27:37.867Z,9.60
2022-09-18T06:28:09.706Z,9.70
2022-09-18T06:28:42.437Z,9.70
2022-09-18T06:29:14.212Z,9.70
2022-09-18T06:29:46.027Z,9.70
2022-09-18T06:30:18.937Z,9.60
2022-09-18T06:30:50.800Z,9.60
2022-09-18T06:31:22.675Z,9.70
2022-09-18T06:31:55.589Z,9.70
2022-09-18T06:32:28.812Z,9.70
2022-09-18T06:33:01.477Z,9.70
2022-09-18T06:33:36.077Z,9.70
2022-09-18T06:34:07.852Z,9.70
2022-09-18T06:34:39.661Z,9.70
2022-09-18T06:35:12.497Z,9.70
2022-09-18T06:35:48.328Z,9.70
2022-09-18T06:36:21.110Z,9.70
2022-09-18T06:36:52.873Z,9.80
2022-09-18T06:37:24.788Z,9.80
2022-09-18T06:38:01.227Z,9.70
2022-09-18T06:38:33.616Z,9.70
2022-09-18T06:39:05.430Z,9.70
2022-09-18T06:39:38.167Z,9.70
2022-09-18T06:40:10.637Z,9.70
2022-09-18T06:40:50.588Z,9.70
2022-09-18T06:41:24.018Z,9.70
2022-09-18T06:41:55.794Z,9.70
2022-09-18T06:42:28.498Z,9.70
2022-09-18T06:43:01.649Z,9.70
2022-09-18T06:43:33.416Z,9.70
2022-09-18T06:44:06.248Z,9.70
2022-09-18T06:44:38.220Z,9.80
2022-09-18T06:45:10.227Z,9.80
2022-09-18T06:45:43.053Z,9.80
2022-09-18T06:46:14.950Z,9.80
2022-09-18T06:46:47.913Z,9.80
2022-09-18T06:47:20.700Z,9.80
2022-09-18T06:47:54.972Z,9.80
2022-09-18T06:48:29.130Z,9.80
2022-09-18T06:49:02.228Z,9.80
2022-09-18T06:49:34.149Z,9.80
2022-09-18T06:50:07.935Z,9.80
2022-09-18T06:50:40.687Z,9.80
2022-09-18T06:51:12.672Z,9.80
2022-09-18T06:51:46.042Z,9.80
2022-09-18T06:52:18.829Z,9.80
2022-09-18T06:52:50.905Z,9.80
2022-09-18T06:53:23.645Z,9.80
2022-09-18T06:53:56.460Z,9.90
2022-09-18T06:54:28.240Z,9.90
2022-09-18T06:55:00.069Z,9.80
2022-09-18T06:55:32.875Z,9.80
2022-09-18T06:56:04.924Z,9.80
2022-09-18T06:56:36.842Z,9.80
2022-09-18T06:57:09.633Z,9.80
2022-09-18T06:57:41.506Z,9.80
2022-09-18T06:58:13.297Z,9.80
2022-09-18T06:58:46.135Z,9.80
2022-09-18T06:59:18.058Z,9.80
2022-09-18T06:59:49.896Z,9.70
2022-09-18T07:00:23.125Z,9.70
2022-09-18T07:00:55.131Z,9.70
2022-09-18T07:01:27.080Z,9.70
2022-09-18T07:02:00.003Z,9.70
2022-09-18T07:02:32.163Z,9.70
2022-09-18T07:03:05.421Z,9.70
2022-09-18T07:03:38.232Z,9.70
2022-09-18T07:04:10.016Z,9.70
2022-09-18T07:04:41.946Z,9.70
2022-09-18T07:05:14.781Z,9.70
2022-09-18T07:05:46.739Z,9.70
2022-09-18T07:06:18.558Z,9.70
2022-09-18T07:06:51.272Z,9.70
2022-09-18T07:07:23.103Z,9.70
2022-09-18T07:07:54.972Z,9.70
2022-09-18T07:08:27.707Z,9.70
2022-09-18T07:08:59.671Z,9.70
2022-09-18T07:09:31.554Z,9.70
2022-09-18T07:10:08.858Z,9.70
2022-09-18T07:10:40.989Z,9.70
2022-09-18T07:11:12.814Z,9.60
2022-09-18T07:11:45.573Z,9.60
2022-09-18T07:12:17.336Z,9.60
2022-09-18T07:12:49.861Z,9.60
2022-09-18T07:13:22.641Z,9.60
2022-09-18T07:13:54.408Z,9.60
2022-09-18T07:14:26.347Z,9.60
2022-09-18T07:14:59.128Z,9.60
2022-09-18T07:15:31.646Z,9.60
2022-09-18T07:16:04.204Z,9.60
2022-09-18T07:16:37.077Z,9.60
2022-09-18T07:17:12.048Z,9.60
2022-09-18T07:17:46.400Z,9.60
2022-09-18T07:18:20.718Z,9.70
2022-09-18T07:18:53.744Z,9.70
2022-09-18T07:19:25.531Z,9.70
2022-09-18T07:19:58.300Z,9.70
2022-09-18T07:20:30.454Z,9.70
2022-09-18T07:21:02.301Z,9.70
2022-09-18T07:21:35.073Z,9.70
2022-09-18T07:22:06.886Z,9.70
2022-09-18T07:22:41.736Z,9.70
2022-09-18T07:23:17.981Z,9.70
2022-09-18T07:23:49.823Z,9.70
2022-09-18T07:24:21.612Z,9.70
2022-09-18T07:24:54.485Z,9.70
2022-09-18T07:25:28.301Z,9.70
2022-09-18T07:26:00.730Z,9.70
2022-09-18T07:26:33.520Z,9.70
2022-09-18T07:27:05.334Z,9.60
2022-09-18T07:27:37.161Z,9.70
2022-09-18T07:28:12.028Z,9.70
2022-09-18T07:28:43.882Z,9.80
2022-09-18T07:29:15.641Z,9.70
2022-09-18T07:29:48.497Z,9.70
2022-09-18T07:30:20.616Z,9.70
2022-09-18T07:30:52.480Z,9.70
2022-09-18T07:31:25.293Z,9.70
2022-09-18T07:31:58.369Z,9.70
2022-09-18T07:32:30.148Z,9.70
2022-09-18T07:33:03.822Z,9.70
2022-09-18T07:33:37.235Z,9.80
2022-09-18T07:34:09.299Z,9.80